1 Hotel West Hollywood East Helipad

US-3769 · 加利福尼亚州, 美国

罗盘
风向 的 风向 070° 直升机
风: 3 kt, 1 beaufort
0 ft 1.000 2.000 3.000 4.000 5.000
Cloud Cloud Cloud Cloud Cloud Cloud Cloud Cloud
OVC 1.100
METAR KSMO 051351Z AUTO 07003KT 5SM -RA BR OVC011 12/10 A3018 RMK AO2 RAE08B48 SLP219 P0000 T01170100

METAR 1 Hotel West Hollywood East Helipad - US-3769

1 Hotel West Hollywood East Helipad是,美国中的直升机场。 视场标高为500 ft。 该领域的国际民航组织标志是US-3769.

这份报告是针对2023年2月5日 05:51, 当地时间在Santa Monica Municipal Airport进行的。

机场观察

风向为070°,速度为3 kt。

可见度为5 mi。

有乌云密布在1.100 ft的高度。 破损或更高的上限为1.100 ft。

当前天气为光 雨, 薄雾。 温度和风寒是12 °C。 露点为10 °C,相对湿度为88%。 海平面上的气压为30,18 inHg (QNH)。

白天

今天,太阳从06:47升起,在17:27降落。 这适用于1 Hotel West Hollywood East Helipad,世界夏令时可能有所不同。 当地时间与世界标准时间之间的时差为-8 小时。 当前,没有夏令时有效。

公司介绍

我们没有关于这个机场的公司信息。

体会

到Vliegles.nl去找飞行课程,跳伞和其他飞行体验。 浏览页面,了解1 Hotel West Hollywood East Helipad附近所有可用的活动。 你也可以使用搜索功能来寻找你所在地附近的特定飞行课程、跳伞或其他飞行体验。

乌云

1.100 ft OVC 乌云密布

温度 & 天气

天气 光 雨
薄雾
温度 11,7 °C
露点 10,0 °C
相对湿度 88%
Kp-index 0 (0-9)

评论

AO2自动气象站,可确定降水类型
RAE08B48雨 结束于 08, 开始于 48
SLP219海平面压力为30,18 inHg (30,18 inHg)
P0000自从上次观察以来没有降雨
T01170100温度为11,7 °C (53,1 °F),露点为10,0 °C (50,0 °F)

白天

日出
06:47 (42m)
中午
12:07
日落
17:28

小工具

你想在你的网站上有一个关于1 Hotel West Hollywood East Helipad的当前航空天气(METAR)的小部件吗?

显示HTML代码

我们和第三方通过cookies跟踪您在我们网站上的互联网行为。如果你继续,我们认为你同意我们的饼干政策